createdAt,value
2019-04-19T00:00:12.820Z,7.20
2019-04-19T00:02:44.638Z,7.37
2019-04-19T00:05:13.152Z,6.90
2019-04-19T00:07:47.981Z,6.80
2019-04-19T00:10:28.444Z,7.20
2019-04-19T00:12:50.347Z,6.50
2019-04-19T00:15:14.018Z,6.90
2019-04-19T00:17:43.936Z,7.23
2019-04-19T00:20:31.402Z,7.23
2019-04-19T00:22:58.190Z,7.27
2019-04-19T00:25:14.060Z,7.23
2019-04-19T00:27:49.383Z,7.00
2019-04-19T00:30:23.745Z,7.07
2019-04-19T00:33:00.656Z,7.63
2019-04-19T00:35:14.342Z,7.10
2019-04-19T00:37:43.177Z,6.80
2019-04-19T00:40:32.058Z,6.70
2019-04-19T00:42:56.949Z,7.33
2019-04-19T00:45:26.219Z,6.47
2019-04-19T00:47:55.977Z,7.07
2019-04-19T00:50:23.953Z,7.10
2019-04-19T00:53:02.935Z,7.53
2019-04-19T00:55:21.623Z,6.57
2019-04-19T00:57:51.934Z,6.67
2019-04-19T01:00:22.647Z,7.23
2019-04-19T01:02:52.975Z,7.07
2019-04-19T01:05:20.932Z,6.83
2019-04-19T01:07:49.495Z,6.80
2019-04-19T01:10:31.184Z,6.90
2019-04-19T01:13:05.472Z,6.80
2019-04-19T01:15:29.931Z,7.00
2019-04-19T01:18:05.468Z,6.90
2019-04-19T01:20:20.565Z,7.03
2019-04-19T01:22:58.801Z,7.40
2019-04-19T01:25:24.082Z,7.10
2019-04-19T01:27:50.939Z,7.50
2019-04-19T01:30:28.788Z,7.17
2019-04-19T01:32:57.262Z,7.10
2019-04-19T01:35:21.841Z,6.80
2019-04-19T01:37:56.742Z,7.07
2019-04-19T01:40:43.999Z,7.73
2019-04-19T01:43:06.077Z,7.50
2019-04-19T01:45:44.694Z,7.00
2019-04-19T01:48:07.600Z,7.40
2019-04-19T01:50:44.162Z,7.60
2019-04-19T01:53:17.346Z,7.83
2019-04-19T01:55:29.685Z,6.77
2019-04-19T01:58:02.532Z,6.80
2019-04-19T02:00:37.231Z,8.20
2019-04-19T02:02:59.900Z,7.80
2019-04-19T02:05:27.692Z,7.43
2019-04-19T02:08:03.485Z,7.80
2019-04-19T02:11:02.714Z,7.60
2019-04-19T02:13:31.682Z,7.33
2019-04-19T02:15:57.555Z,8.93
2019-04-19T02:18:29.396Z,7.63
2019-04-19T02:20:58.182Z,7.00
2019-04-19T02:23:28.169Z,7.60
2019-04-19T02:26:03.409Z,7.47
2019-04-19T02:28:31.832Z,7.73
2019-04-19T02:31:19.090Z,7.57
2019-04-19T02:33:55.958Z,8.20
2019-04-19T02:36:25.386Z,7.60
2019-04-19T02:39:06.813Z,8.60
2019-04-19T02:41:40.036Z,8.30
2019-04-19T02:43:59.349Z,8.63
2019-04-19T02:49:02.129Z,8.47
2019-04-19T02:51:32.955Z,9.87
2019-04-19T02:54:02.325Z,9.57
2019-04-19T02:56:44.582Z,9.20
2019-04-19T02:59:18.555Z,9.80
2019-04-19T03:01:40.122Z,9.37
2019-04-19T03:04:15.799Z,9.57
2019-04-19T03:06:22.419Z,8.63
2019-04-19T03:08:37.470Z,10.10
2019-04-19T03:11:22.066Z,10.23
2019-04-19T03:13:54.563Z,9.63
2019-04-19T03:16:31.241Z,10.13
2019-04-19T03:18:53.625Z,9.43
2019-04-19T03:21:25.119Z,9.70
2019-04-19T03:23:56.625Z,9.70
2019-04-19T03:26:28.070Z,9.37
2019-04-19T03:28:48.179Z,9.27
2019-04-19T03:31:41.354Z,9.30
2019-04-19T03:34:11.617Z,9.03
2019-04-19T03:36:27.196Z,9.23
2019-04-19T03:39:07.133Z,9.10
2019-04-19T03:44:03.622Z,9.00
2019-04-19T03:46:31.461Z,9.60
2019-04-19T03:48:56.146Z,8.70
2019-04-19T03:51:35.872Z,9.07
2019-04-19T03:54:00.528Z,9.47
2019-04-19T03:56:36.086Z,9.47
2019-04-19T03:58:46.425Z,8.67
2019-04-19T04:01:15.270Z,8.83
2019-04-19T04:03:47.946Z,8.93
2019-04-19T04:06:21.972Z,10.03
2019-04-19T04:08:48.240Z,9.47
2019-04-19T04:11:20.119Z,10.10
2019-04-19T04:14:03.019Z,9.53
2019-04-19T04:16:25.222Z,9.30
2019-04-19T04:18:47.157Z,9.53
2019-04-19T04:21:16.302Z,9.93
2019-04-19T04:23:51.147Z,10.50
2019-04-19T04:26:19.504Z,10.23
2019-04-19T04:28:59.501Z,10.37
2019-04-19T04:31:25.555Z,10.27
2019-04-19T04:33:58.118Z,10.53
2019-04-19T04:36:39.941Z,10.40
2019-04-19T04:38:49.963Z,10.30
2019-04-19T04:41:23.618Z,10.60
2019-04-19T04:44:10.241Z,10.63
2019-04-19T04:46:44.886Z,11.23
2019-04-19T04:49:07.183Z,11.00
2019-04-19T04:51:42.248Z,10.57
2019-04-19T04:53:51.174Z,10.97
2019-04-19T04:56:21.436Z,11.03
2019-04-19T04:58:51.167Z,10.60
2019-04-19T05:01:33.524Z,10.27
2019-04-19T05:04:07.422Z,11.13
2019-04-19T05:06:34.347Z,11.63
2019-04-19T05:09:16.914Z,11.33
2019-04-19T05:11:38.577Z,11.03
2019-04-19T05:14:12.184Z,10.57
2019-04-19T05:16:46.733Z,10.27
2019-04-19T05:19:13.094Z,10.60
2019-04-19T05:21:40.348Z,11.43
2019-04-19T05:24:14.958Z,10.83
2019-04-19T05:26:47.266Z,12.10
2019-04-19T05:29:10.911Z,11.30
2019-04-19T05:31:32.899Z,11.03
2019-04-19T05:34:17.651Z,10.57
2019-04-19T05:36:43.909Z,10.67
2019-04-19T05:39:17.358Z,11.00
2019-04-19T05:41:44.094Z,11.13
2019-04-19T05:46:51.774Z,11.00
2019-04-19T05:49:16.069Z,10.30
2019-04-19T05:54:05.425Z,10.40
2019-04-19T05:56:30.828Z,10.43
2019-04-19T05:59:08.830Z,9.97
2019-04-19T06:01:48.151Z,9.33
2019-04-19T06:04:18.257Z,9.30
2019-04-19T06:06:53.932Z,9.93
2019-04-19T06:09:00.438Z,7.37
2019-04-19T06:11:33.309Z,10.07
2019-04-19T06:14:19.225Z,9.43
2019-04-19T06:16:43.869Z,9.97
2019-04-19T06:19:18.127Z,10.30
2019-04-19T06:21:46.137Z,10.47
2019-04-19T06:24:25.097Z,9.93
2019-04-19T06:27:02.661Z,10.03
2019-04-19T06:29:23.893Z,9.27
2019-04-19T06:31:58.553Z,9.73
2019-04-19T06:34:23.097Z,10.00
2019-04-19T06:36:31.651Z,9.27
2019-04-19T06:39:01.481Z,9.10
2019-04-19T06:41:37.773Z,9.63
2019-04-19T06:44:10.844Z,8.87
2019-04-19T06:46:45.217Z,9.40
2019-04-19T06:49:08.325Z,9.30
2019-04-19T06:51:41.579Z,9.60
2019-04-19T06:54:07.170Z,8.67
2019-04-19T06:56:38.225Z,10.00
2019-04-19T06:59:13.876Z,9.63
2019-04-19T07:01:42.021Z,9.30
2019-04-19T07:04:06.092Z,9.20
2019-04-19T07:06:48.190Z,8.83
2019-04-19T07:09:35.604Z,9.77
2019-04-19T07:11:55.473Z,8.67
2019-04-19T07:14:14.578Z,9.50
2019-04-19T07:16:59.670Z,9.27
2019-04-19T07:19:30.384Z,8.50
2019-04-19T07:21:57.878Z,7.67
2019-04-19T07:24:33.940Z,7.97
2019-04-19T07:26:57.823Z,8.53
2019-04-19T07:29:10.758Z,7.53
2019-04-19T07:31:40.173Z,8.30
2019-04-19T07:34:22.271Z,8.67
2019-04-19T07:36:59.358Z,8.03
2019-04-19T07:39:28.352Z,7.53
2019-04-19T07:42:07.731Z,8.20
2019-04-19T07:44:21.269Z,8.17
2019-04-19T07:47:02.162Z,7.53
2019-04-19T07:49:15.351Z,8.07
2019-04-19T07:51:56.545Z,8.03
2019-04-19T07:54:19.782Z,7.37
2019-04-19T07:56:58.438Z,7.60
2019-04-19T07:59:42.382Z,7.90
2019-04-19T08:07:24.260Z,7.67
2019-04-19T08:17:35.527Z,6.63
2019-04-19T08:29:35.213Z,6.13
2019-04-19T08:31:53.452Z,5.87
2019-04-19T08:34:27.292Z,7.40
2019-04-19T08:36:58.605Z,7.30
2019-04-19T08:39:41.730Z,6.07
2019-04-19T08:42:18.411Z,6.30
2019-04-19T08:44:40.599Z,6.63
2019-04-19T08:47:00.007Z,6.07
2019-04-19T08:49:37.159Z,7.00
2019-04-19T08:52:08.445Z,6.20
2019-04-19T08:54:54.733Z,6.03
2019-04-19T08:57:08.165Z,6.67
2019-04-19T08:59:54.027Z,5.90
2019-04-19T09:02:23.424Z,6.27
2019-04-19T09:04:51.978Z,6.60
2019-04-19T09:10:14.035Z,6.37
2019-04-19T09:12:21.082Z,6.77
2019-04-19T09:14:56.351Z,6.40
2019-04-19T09:17:33.202Z,5.90
2019-04-19T09:20:14.114Z,6.33
2019-04-19T09:22:25.540Z,6.03
2019-04-19T09:24:47.878Z,6.27
2019-04-19T09:27:33.854Z,7.03
2019-04-19T09:29:58.942Z,6.20
2019-04-19T09:32:15.395Z,5.83
2019-04-19T09:34:47.086Z,6.10
2019-04-19T09:37:20.304Z,6.17
2019-04-19T09:39:48.865Z,6.33
2019-04-19T09:42:24.359Z,5.97
2019-04-19T09:44:48.292Z,5.97
2019-04-19T09:47:12.407Z,6.13
2019-04-19T09:49:53.259Z,5.53
2019-04-19T09:52:35.687Z,5.80
2019-04-19T09:55:04.006Z,6.50
2019-04-19T09:57:34.468Z,5.90
2019-04-19T09:59:44.721Z,5.60
2019-04-19T10:02:22.538Z,6.03
2019-04-19T10:04:44.147Z,6.03
2019-04-19T10:07:13.013Z,6.47
2019-04-19T10:09:42.904Z,5.80
2019-04-19T10:12:11.782Z,6.57
2019-04-19T10:14:41.676Z,6.20
2019-04-19T10:17:12.353Z,6.50
2019-04-19T10:19:42.493Z,5.67
2019-04-19T10:22:12.377Z,6.07
2019-04-19T10:24:41.325Z,6.27
2019-04-19T10:30:04.314Z,6.20
2019-04-19T10:32:46.530Z,7.00
2019-04-19T10:35:27.708Z,6.43
2019-04-19T10:38:09.526Z,6.67
2019-04-19T10:40:51.413Z,6.20
2019-04-19T10:43:32.933Z,6.30
2019-04-19T10:46:15.064Z,5.77
2019-04-19T10:49:07.907Z,5.20
2019-04-19T10:51:39.755Z,5.70
2019-04-19T10:54:20.611Z,5.50
2019-04-19T10:57:02.202Z,5.23
2019-04-19T10:59:44.712Z,5.30
2019-04-19T11:02:26.767Z,5.13
2019-04-19T11:05:09.196Z,5.77
2019-04-19T11:07:51.638Z,4.10
2019-04-19T11:10:33.545Z,3.10
2019-04-19T11:13:14.958Z,3.07
2019-04-19T11:15:56.320Z,3.17
2019-04-19T11:18:37.668Z,3.30
2019-04-19T11:21:19.872Z,2.80
2019-04-19T11:24:01.976Z,2.70
2019-04-19T11:26:43.233Z,2.90
2019-04-19T11:29:24.230Z,2.90
2019-04-19T11:32:06.012Z,2.70
2019-04-19T11:34:47.588Z,2.80
2019-04-19T11:40:13.078Z,2.90
2019-04-19T11:42:55.206Z,2.80
2019-04-19T11:45:37.699Z,2.70
2019-04-19T11:48:19.022Z,2.53
2019-04-19T11:51:00.167Z,3.23
2019-04-19T11:53:40.814Z,2.83
2019-04-19T11:56:22.749Z,2.47
2019-04-19T11:59:04.713Z,3.03
2019-04-19T12:01:46.170Z,2.90
2019-04-19T12:04:26.618Z,2.80
2019-04-19T12:07:08.191Z,2.37
2019-04-19T12:09:50.353Z,2.70
2019-04-19T12:12:32.861Z,3.50
2019-04-19T12:15:14.091Z,2.97
2019-04-19T12:17:55.447Z,2.60
2019-04-19T12:20:37.480Z,2.67
2019-04-19T12:23:18.219Z,2.87
2019-04-19T12:25:59.801Z,3.00
2019-04-19T12:28:41.704Z,2.87
2019-04-19T12:31:23.376Z,3.10
2019-04-19T12:34:06.866Z,2.90
2019-04-19T12:36:47.369Z,2.50
2019-04-19T12:39:28.591Z,2.77
2019-04-19T12:42:11.111Z,2.67
2019-04-19T12:44:52.386Z,2.70
2019-04-19T12:47:33.728Z,2.60
2019-04-19T12:50:16.243Z,2.93
2019-04-19T12:52:57.958Z,2.30
2019-04-19T12:55:39.952Z,2.37
2019-04-19T12:58:21.996Z,2.40
2019-04-19T13:01:03.863Z,2.53
2019-04-19T13:03:46.284Z,2.63
2019-04-19T13:06:27.879Z,2.70
2019-04-19T13:09:08.932Z,2.60
2019-04-19T13:11:50.602Z,2.37
2019-04-19T13:14:33.315Z,2.30
2019-04-19T13:17:14.503Z,2.20
2019-04-19T13:20:08.671Z,2.30
2019-04-19T13:22:38.853Z,2.33
2019-04-19T13:25:19.951Z,2.10
2019-04-19T13:28:01.711Z,2.40
2019-04-19T13:30:50.035Z,2.23
2019-04-19T13:33:26.105Z,2.13
2019-04-19T13:36:07.343Z,2.40
2019-04-19T13:38:48.775Z,2.67
2019-04-19T13:41:29.683Z,2.50
2019-04-19T13:44:11.267Z,2.03
2019-04-19T13:46:52.946Z,2.23
2019-04-19T13:49:34.673Z,2.63
2019-04-19T13:52:16.630Z,2.30
2019-04-19T13:54:58.846Z,2.30
2019-04-19T13:57:37.926Z,2.40
2019-04-19T14:00:46.699Z,2.00
2019-04-19T14:03:35.286Z,2.37
2019-04-19T14:06:44.604Z,2.30
2019-04-19T14:09:33.619Z,2.70
2019-04-19T14:12:43.046Z,2.30
2019-04-19T14:15:31.443Z,1.90
2019-04-19T14:18:19.598Z,2.43
2019-04-19T14:21:08.683Z,1.80
2019-04-19T14:24:04.126Z,2.30
2019-04-19T14:26:55.517Z,2.60
2019-04-19T14:30:03.665Z,2.30
2019-04-19T14:33:12.736Z,2.43
2019-04-19T14:36:01.966Z,2.50
2019-04-19T14:39:10.942Z,2.40
2019-04-19T14:41:59.440Z,2.07
2019-04-19T14:44:47.632Z,2.30
2019-04-19T14:47:36.942Z,2.10
2019-04-19T14:50:54.172Z,1.80
2019-04-19T14:53:55.913Z,2.20
2019-04-19T14:56:58.665Z,2.37
2019-04-19T14:59:40.802Z,2.50
2019-04-19T15:02:22.761Z,2.20
2019-04-19T15:05:05.455Z,2.40
2019-04-19T15:07:46.540Z,2.00
2019-04-19T15:10:27.738Z,2.10
2019-04-19T15:13:08.942Z,2.30
2019-04-19T15:15:50.075Z,2.30
2019-04-19T15:18:31.888Z,2.40
2019-04-19T15:24:16.967Z,2.10
2019-04-19T15:27:05.356Z,2.00
2019-04-19T15:29:59.021Z,2.40
2019-04-19T15:32:44.479Z,1.80
2019-04-19T15:35:53.859Z,1.70
2019-04-19T15:38:42.004Z,1.80
2019-04-19T15:41:30.330Z,1.90
2019-04-19T15:44:18.979Z,2.07
2019-04-19T15:47:08.391Z,2.10
2019-04-19T15:56:22.665Z,1.73
2019-04-19T15:59:04.970Z,2.17
2019-04-19T16:01:46.476Z,2.33
2019-04-19T16:04:29.510Z,2.10
2019-04-19T16:07:10.746Z,2.57
2019-04-19T16:09:55.687Z,2.10
2019-04-19T16:12:34.181Z,2.30
2019-04-19T16:15:16.070Z,2.17
2019-04-19T16:17:57.791Z,1.70
2019-04-19T16:20:39.128Z,2.10
2019-04-19T16:23:20.624Z,2.10
2019-04-19T16:26:03.230Z,2.03
2019-04-19T16:28:44.438Z,2.10
2019-04-19T16:31:26.482Z,2.13
2019-04-19T16:34:08.218Z,1.87
2019-04-19T16:36:50.061Z,2.00
2019-04-19T16:39:19.317Z,2.20
2019-04-19T16:41:48.945Z,2.00
2019-04-19T16:44:57.785Z,1.87
2019-04-19T16:47:47.213Z,2.00
2019-04-19T16:50:56.742Z,1.53
2019-04-19T16:53:26.079Z,1.90
2019-04-19T16:56:28.347Z,2.60
2019-04-19T16:59:00.019Z,2.00
2019-04-19T17:02:00.934Z,2.23
2019-04-19T17:05:00.827Z,2.00
2019-04-19T17:07:59.587Z,1.87
2019-04-19T17:10:59.732Z,2.93
2019-04-19T17:14:02.851Z,2.53
2019-04-19T17:17:06.995Z,3.90
2019-04-19T17:20:02.811Z,2.67
2019-04-19T17:23:01.583Z,3.00
2019-04-19T17:25:50.754Z,3.77
2019-04-19T17:28:59.440Z,3.87
2019-04-19T17:32:08.007Z,3.27
2019-04-19T17:35:18.316Z,3.00
2019-04-19T17:38:33.670Z,2.77
2019-04-19T17:41:36.770Z,2.67
2019-04-19T17:44:25.840Z,4.37
2019-04-19T17:47:38.209Z,4.37
2019-04-19T17:50:44.071Z,3.93
2019-04-19T17:53:40.099Z,3.43
2019-04-19T17:56:24.462Z,4.00
2019-04-19T17:59:06.511Z,3.13
2019-04-19T18:01:48.393Z,3.63
2019-04-19T18:04:30.269Z,3.70
2019-04-19T18:07:11.619Z,3.50
2019-04-19T18:09:57.151Z,4.90
2019-04-19T18:12:35.236Z,4.40
2019-04-19T18:15:17.279Z,3.80
2019-04-19T18:18:02.045Z,3.53
2019-04-19T18:23:48.144Z,3.30
2019-04-19T18:26:54.644Z,3.30
2019-04-19T18:30:05.005Z,3.30
2019-04-19T18:33:18.163Z,3.73
2019-04-19T18:36:09.579Z,3.65
2019-04-19T18:39:02.180Z,3.47
2019-04-19T18:42:01.805Z,3.70
2019-04-19T18:45:00.802Z,3.80
2019-04-19T18:48:01.041Z,3.27
2019-04-19T18:51:04.343Z,3.80
2019-04-19T18:54:13.397Z,4.47
2019-04-19T18:57:02.569Z,4.17
2019-04-19T18:59:45.355Z,4.20
2019-04-19T19:02:26.718Z,3.87
2019-04-19T19:05:09.764Z,4.57
2019-04-19T19:07:56.273Z,5.80
2019-04-19T19:10:39.587Z,4.73
2019-04-19T19:13:16.463Z,4.10
2019-04-19T19:15:58.226Z,4.37
2019-04-19T19:18:45.809Z,4.50
2019-04-19T19:21:28.796Z,5.77
2019-04-19T19:24:27.614Z,4.50
2019-04-19T19:27:00.958Z,4.53
2019-04-19T19:29:34.258Z,4.73
2019-04-19T19:32:17.512Z,7.60
2019-04-19T19:35:03.192Z,5.03
2019-04-19T19:37:43.088Z,4.30
2019-04-19T19:40:33.466Z,4.67
2019-04-19T19:43:15.539Z,5.13
2019-04-19T19:45:41.450Z,5.87
2019-04-19T19:48:13.273Z,5.77
2019-04-19T19:50:48.502Z,5.27
2019-04-19T19:53:17.008Z,5.10
2019-04-19T19:55:47.021Z,5.10
2019-04-19T19:58:08.146Z,5.33
2019-04-19T20:00:40.952Z,5.10
2019-04-19T20:03:10.756Z,5.47
2019-04-19T20:05:33.270Z,4.97
2019-04-19T20:07:59.586Z,5.03
2019-04-19T20:10:36.118Z,5.00
2019-04-19T20:13:01.757Z,5.57
2019-04-19T20:15:33.957Z,5.53
2019-04-19T20:18:01.953Z,5.00
2019-04-19T20:20:34.197Z,4.83
2019-04-19T20:23:02.403Z,5.50
2019-04-19T20:25:38.569Z,5.73
2019-04-19T20:28:03.018Z,5.77
2019-04-19T20:30:39.175Z,5.20
2019-04-19T20:33:03.718Z,6.83
2019-04-19T20:35:34.429Z,7.60
2019-04-19T20:38:07.485Z,5.27
2019-04-19T20:40:34.368Z,4.90
2019-04-19T20:43:27.952Z,4.67
2019-04-19T20:45:41.941Z,4.53
2019-04-19T20:48:15.598Z,4.63
2019-04-19T20:50:47.295Z,5.23
2019-04-19T20:53:16.195Z,7.70
2019-04-19T20:56:10.875Z,5.50
2019-04-19T20:58:22.281Z,5.57
2019-04-19T21:00:38.546Z,8.87
2019-04-19T21:03:07.978Z,6.17
2019-04-19T21:05:42.591Z,6.80
2019-04-19T21:08:11.002Z,7.50
2019-04-19T21:10:39.222Z,6.87
2019-04-19T21:13:12.174Z,6.43
2019-04-19T21:15:40.519Z,6.97
2019-04-19T21:18:16.021Z,6.47
2019-04-19T21:20:40.582Z,6.23
2019-04-19T21:23:16.687Z,6.07
2019-04-19T21:25:46.520Z,5.30
2019-04-19T21:28:10.618Z,4.63
2019-04-19T21:30:47.819Z,4.70
2019-04-19T21:33:13.440Z,4.70
2019-04-19T21:35:48.343Z,5.03
2019-04-19T21:38:17.249Z,6.20
2019-04-19T21:40:43.607Z,6.50
2019-04-19T21:43:12.914Z,6.13
2019-04-19T21:45:46.288Z,5.27
2019-04-19T21:48:12.924Z,5.80
2019-04-19T21:50:45.446Z,5.53
2019-04-19T21:53:12.865Z,5.73
2019-04-19T21:55:44.785Z,6.57
2019-04-19T21:58:17.734Z,6.30
2019-04-19T22:00:45.289Z,5.40
2019-04-19T22:03:18.551Z,5.03
2019-04-19T22:05:45.195Z,5.50
2019-04-19T22:08:20.976Z,5.20
2019-04-19T22:10:47.227Z,5.70
2019-04-19T22:13:15.167Z,5.33
2019-04-19T22:15:50.730Z,5.70
2019-04-19T22:18:15.249Z,5.43
2019-04-19T22:20:51.323Z,4.83
2019-04-19T22:23:16.104Z,5.37
2019-04-19T22:25:52.680Z,5.03
2019-04-19T22:28:15.498Z,5.37
2019-04-19T22:30:49.701Z,5.27
2019-04-19T22:33:14.682Z,5.10
2019-04-19T22:35:48.054Z,5.90
2019-04-19T22:38:17.983Z,5.20
2019-04-19T22:40:45.043Z,5.20
2019-04-19T22:43:15.069Z,5.50
2019-04-19T22:45:44.563Z,4.90
2019-04-19T22:48:16.797Z,5.50
2019-04-19T22:50:44.554Z,5.77
2019-04-19T22:53:17.275Z,6.07
2019-04-19T22:55:52.276Z,6.07
2019-04-19T22:58:20.934Z,6.03
2019-04-19T23:00:47.105Z,6.43
2019-04-19T23:03:23.988Z,6.30
2019-04-19T23:05:48.330Z,7.47
2019-04-19T23:08:24.470Z,6.97
2019-04-19T23:10:54.283Z,7.47
2019-04-19T23:13:17.662Z,8.23
2019-04-19T23:15:47.782Z,8.30
2019-04-19T23:18:21.458Z,9.03
2019-04-19T23:20:47.442Z,7.50
2019-04-19T23:23:21.815Z,7.03
2019-04-19T23:26:03.201Z,8.43
2019-04-19T23:28:25.349Z,8.60
2019-04-19T23:30:47.612Z,8.63
2019-04-19T23:33:21.045Z,9.60
2019-04-19T23:35:49.179Z,9.33
2019-04-19T23:38:22.554Z,9.33
2019-04-19T23:40:48.772Z,9.47
2019-04-19T23:43:24.236Z,9.50
2019-04-19T23:45:49.238Z,8.57
2019-04-19T23:48:24.227Z,8.33
2019-04-19T23:50:50.081Z,8.90
2019-04-19T23:53:22.523Z,7.93
2019-04-19T23:55:50.674Z,8.30
2019-04-19T23:58:28.185Z,8.00
